Glenhayes, West Virginia
Current Conditions -  °F | °C
As of 1:15 PM on Saturday 25 Oct 2014 (Local Time) from KSJS Reporting Station
Overcast Overcast  
Wind Chill: 62°   Ceiling: 6000
Heat Index: 62°   Visibility: 10mi
Dew Point: 48°   Wind: 5mph
Humidity: 62%   Direction: 250°WSW
Pressure: 30.04"   Gusts: NA
Location:  38.01°N, 82.52°W
Report Text: KSJS 251715Z AUTO 25004KT 10SM OVC060 17/09 A3004 RMK AO2 T01650091
Loading
Personal Weather Stations






























Interactive Weather Map
Tropical Storm Tracking
New forecast layout! Learn more

10-Day Weather Forecast

Advertisements
Track Severe Weather on mobile